Bodega Marine Reserve, California Weather observations

Data are for 10 minute period ending at time listed.
 Day   Time   Solar   Ave.   Ave.  Ave.  Vector  Max.   Baro.   Total    
  of    of     Rad.   Air    Rel.  Wind   Wind   Wind  Press.  Precip.   
Year   Day            Temp.  Hum.  Speed  Dir.   Gust                    
2017   (PST)  Kw/m2    F      %     mph   deg.    mph    mb.     in.     
-------------------------------------------------------------------------
  22   17:10   0.01   45.7    89    2.1   153     4.1   1001.4    0.00 
  22   17:20   0.01   45.8    89    3.6   130     7.2   1001.0    0.00 
  22   17:30   0.01   46.0    89    3.5   143     5.7   1001.0    0.00 
  22   17:40   0.01   46.4    90    4.8   145     8.7   1001.0    0.00 
  22   17:50   0.01   46.8    90    6.8   148     9.8   1001.4    0.00 
  22   18:00   0.00   46.8    89    5.5   153     9.1   1001.4    0.00 
  22   18:10   0.00   46.8    89    4.6   156     7.3   1001.4    0.00 
  22   18:20   0.00   46.9    89    4.7   144     9.9   1001.4    0.00 
  22   18:30   0.00   46.6    89    4.8    98     8.3   1001.7    0.00 
  22   18:40   0.00   46.1    89    3.8    73     5.6   1001.7    0.00 
  22   18:50   0.00   45.9    90    3.8    84     5.6   1001.4    0.00 
  22   19:00   0.00   45.7    90    4.0    88     6.8   1001.4    0.00 
  22   19:10   100.00  99999.0   99999  99999.0   99999   99999.0   99999.0   99999.00 
  22   19:20   100.00  99999.0   99999  99999.0   99999   99999.0   99999.0   99999.00 
  22   19:30   100.00  99999.0   99999  99999.0   99999   99999.0   99999.0   99999.00 
  22   19:40   100.00  99999.0   99999  99999.0   99999   99999.0   99999.0   99999.00 
  22   19:50   100.00  99999.0   99999  99999.0   99999   99999.0   99999.0   99999.00 
  22   20:00   0.00   45.3    91    4.4    85     6.0   1001.7    0.00 
  22   20:10   0.00   45.3    91    3.8    77     5.9   1001.7    0.04 
  22   20:20   0.00   45.3    91    2.7     6     4.7   1001.7    0.05 
  22   20:30   0.00   45.2    91    2.6   172     6.2   1001.7    0.00 
  22   20:40   0.00   45.2    92    4.4   151     6.5   1001.7    0.00 
  22   20:50   0.00   45.2    91    3.3   158     5.0   1001.7    0.00 
  22   21:00   0.00   45.0    92    2.7   137     4.9   1001.7    0.00 
  22   21:10   0.00   44.6    91    3.2    74     5.6   1001.7    0.00 
  22   21:20   0.00   43.8    91    3.0    84     6.5   1001.7    0.00 
  22   21:30   0.00   43.5    91    2.4    90     4.8   1002.0    0.00 
  22   21:40   0.00   43.4    92    2.0   116     5.4   1002.0    0.00 
  22   21:50   0.00   43.5    92    2.2   111     4.5   1002.0    0.00 
  22   22:00   0.00   43.4    92    3.4    88     5.5   1002.0    0.00 
  22   22:10   0.00   43.3    92    4.4    84     6.8   1002.0    0.00 
  22   22:20   0.00   43.3    92    4.4    77     5.9   1002.0    0.00 
  22   22:30   0.00   43.3    92    2.7    98     5.4   1002.0    0.00 
  22   22:40   0.00   43.4    92    2.8   118     5.0   1002.0    0.00 
  22   22:50   0.00   43.4    92    3.0   110     5.2   1002.4    0.00 
  22   23:00   0.00   43.4    92    3.5   119     4.5   1002.4    0.00 
  22   23:10   0.00   43.4    92    2.0   129     3.4   1002.4    0.00 
  22   23:20   0.00   43.2    92    2.4   123     3.6   1002.4    0.00 
  22   23:30   0.00   43.2    92    2.0   112     3.1   1002.4    0.00 
  22   23:40   0.00   43.0    92    1.8   149     3.4   1002.4    0.00 
  22   23:50   0.00   42.8    92    1.0   115     3.0   1002.4    0.00 
  23    0:00   0.00   42.9    92    2.6   132     5.2   1002.4    0.00 
  23    0:10   0.00   42.7    92    2.2   132     3.8   1002.4    0.00 
  23    0:20   0.00   42.5    92    1.8    40     4.5   1002.7    0.00 
  23    0:30   0.00   42.3    92    0.8    44     1.8   1002.7    0.01 
  23    0:40   0.00   42.8    93    0.1   333     0.7   1002.7    0.00 
  23    0:50   0.00   42.9    92    1.4   136     3.7   1002.7    0.00 
  23    1:00   0.00   42.8    92    2.4   119     4.4   1002.7    0.00 
  23    1:10   0.00   42.5    92    2.0   110     4.0   1002.7    0.00 
  23    1:20   0.00   42.5    92    2.5   121     3.9   1002.7    0.00 
  23    1:30   0.00   42.2    92    3.9    96     6.9   1002.7    0.00 
  23    1:40   0.00   42.3    93    2.3    11     7.3   1003.1    0.00 
  23    1:50   0.00   42.9    92    3.4   139     5.1   1003.1    0.00 
  23    2:00   0.00   42.7    92    3.9   164     5.5   1003.1    0.00 
  23    2:10   0.00   42.7    92    1.7   138     4.7   1003.1    0.00 
  23    2:20   0.00   42.3    92    3.1   112     5.2   1003.1    0.00 
  23    2:30   0.00   42.2    92    4.1   103    11.0   1003.1    0.00 
  23    2:40   0.00   42.0    92    9.0    77    12.0   1003.1    0.00 
  23    2:50   0.00   42.2    92    5.6    73     9.9   1003.1    0.00 
  23    3:00   0.00   42.3    92    6.3    37    10.5   1003.4    0.00 
  23    3:10   0.00   42.9    93   10.8   287    23.2   1003.4    0.04 
  23    3:20   0.00   44.7    92   14.4   272    21.5   1003.7    0.01 
  23    3:30   0.00   45.1    90   10.0   272    17.7   1003.7    0.00 
  23    3:40   0.00   45.1    87   11.5   282    17.2   1003.7    0.00 
  23    3:50   0.00   45.0    86    9.5   282    12.9   1003.7    0.00 
  23    4:00   0.00   44.8    85    8.3   278    11.2   1004.1    0.00 
  23    4:10   0.00   44.4    85    5.5   270     8.7   1004.1    0.01 
  23    4:20   0.00   43.7    86    3.8   272     5.0   1004.1    0.00 
  23    4:30   0.00   43.2    86    3.7   269     5.3   1003.7    0.00 
  23    4:40   0.00   42.6    86    2.1   282     5.1   1003.7    0.00 
  23    4:50   0.00   43.1    87    2.1   226     4.4   1004.1    0.00 
  23    5:00   0.00   42.9    87    3.1   101     4.9   1004.1    0.00 
  23    5:10   0.00   42.8    88    3.5    98     5.8   1004.1    0.00 
  23    5:20   0.00   41.9    88    3.5    75     7.2   1004.1    0.00 
  23    5:30   0.00   42.0    89    2.2   150     5.3   1004.1    0.00 
  23    5:40   0.00   42.2    90    1.8   173     6.3   1004.1    0.00 
  23    5:50   0.00   42.4    90    3.8   103     7.8   1004.1    0.00 
  23    6:00   0.00   42.3    90    3.2    51     6.0   1004.1    0.00 
  23    6:10   0.00   42.3    90    1.4    50     5.6   1004.1    0.00 
  23    6:20   0.00   42.6    90    4.8    68     7.7   1004.4    0.00 
  23    6:30   0.00   42.6    90    4.3    70     6.6   1004.4    0.00 
  23    6:40   0.00   42.5    90    3.3    51     5.8   1004.4    0.00 
  23    6:50   0.00   42.6    90    1.9    68     4.6   1004.7    0.00 
  23    7:00   0.00   42.5    90    2.4    99     5.0   1004.7    0.00 
  23    7:10   0.00   42.2    90    2.7    89     5.3   1004.7    0.00 
  23    7:20   0.00   42.0    90    1.9    57     4.1   1004.7    0.00 
  23    7:30   0.00   42.1    91    2.1    74     4.7   1004.7    0.00 
  23    7:40   0.00   42.4    90    2.2    96     4.4   1005.1    0.00 
  23    7:50   0.00   42.6    90    2.8    31     6.4   1005.1    0.01 
  23    8:00   0.00   42.5    90    3.2    32     5.8   1005.4    0.00 
  23    8:10   0.00   42.1    90    1.6   118     3.8   1005.4    0.00 
  23    8:20   0.00   42.2    90    2.2    91     4.3   1005.8    0.00 
  23    8:30   0.00   41.8    90    3.8    89     7.2   1005.8    0.00 
  23    8:40   0.00   41.9    91    4.7    79     8.6   1005.8    0.00 
  23    8:50   0.01   42.0    91    4.4    83     7.1   1005.8    0.00 
  23    9:00   0.02   42.2    91    4.2    75    10.1   1006.1    0.00 
  23    9:10   0.03   42.5    91    7.1    80    11.8   1005.8    0.00 
  23    9:20   0.04   42.5    90    8.3    82    11.7   1006.1    0.00 
  23    9:30   0.04   42.4    91    6.5    92     9.8   1006.4    0.00 
  23    9:40   0.05   42.3    91    5.6    93     8.0   1006.8    0.00 
  23    9:50   0.05   42.2    91    7.7    81    11.2   1006.8    0.00 
  23   10:00   0.04   42.1    91    6.8    96    11.0   1007.1    0.00 
  23   10:10   0.09   42.2    91    6.6    84     9.2   1007.1    0.00 
  23   10:20   0.17   43.3    91    6.6    77     8.3   1007.5    0.00 
  23   10:30   0.11   43.8    91    6.9    85     9.0   1007.5    0.00 
  23   10:40   0.16   44.0    90    7.0    95     9.2   1007.8    0.00 
  23   10:50   0.07   43.8    90    6.6    88     9.4   1007.8    0.00 
  23   11:00   0.07   43.6    90    6.3    87     9.7   1007.8    0.00 
  23   11:10   0.07   43.5    90    6.8    94     9.3   1007.8    0.00 
  23   11:20   0.07   43.4    90    7.9    91    10.7   1008.1    0.00 
  23   11:30   0.11   43.6    91    6.4    89     8.5   1008.1    0.00 
  23   11:40   0.40   44.9    91    8.4    87    11.2   1008.1    0.00 
  23   11:50   0.19   45.3    90    6.8    70     9.9   1008.5    0.00 
  23   12:00   0.07   44.7    90    9.0    19    14.1   1008.8    0.00 
  23   12:10   0.17   44.0    89    4.6    49     6.9   1008.8    0.02 
  23   12:20   0.28   44.3    89    4.1    56     7.7   1008.5    0.00 
  23   12:30   0.19   45.4    88    4.4    39     8.6   1008.5    0.00 
  23   12:40   0.10   45.6    88    4.6    16     7.3   1008.5    0.00 
  23   12:50   0.07   45.1    87    6.5   359     8.8   1008.5    0.00 
  23   13:00   0.18   44.8    87    6.6    30    11.1   1008.5    0.00 
  23   13:10   0.13   44.6    86    4.5    43     6.9   1008.1    0.00 
  23   13:20   0.17   44.8    85    3.3    68     4.7   1008.1    0.00 
  23   13:30   0.46   45.7    84    3.8    90     6.1   1008.1    0.00 
  23   13:40   0.33   46.8    82    3.4    91     5.3   1008.1    0.00 
  23   13:50   0.29   46.8    81    2.5   148     3.6   1008.1    0.00 
  23   14:00   0.45   47.8    79    3.2   152     4.4   1008.1    0.00 
  23   14:10   100.00  99999.0   99999  99999.0   99999   99999.0   99999.0   99999.00 
  23   14:20   100.00  99999.0   99999  99999.0   99999   99999.0   99999.0   99999.00 
  23   14:30   100.00  99999.0   99999  99999.0   99999   99999.0   99999.0   99999.00 
  23   14:40   100.00  99999.0   99999  99999.0   99999   99999.0   99999.0   99999.00 
  23   14:50   100.00  99999.0   99999  99999.0   99999   99999.0   99999.0   99999.00 
  23   15:00   0.09   81.9    62    2.2   289     7.1     0.0   99999.00 
  23   15:10   0.04   47.7    74    3.7   238     4.6   1007.8    0.00 
  23   15:20   0.07   47.3    76    3.7   244     5.3   1007.8    0.00 
  23   15:30   0.24   48.1    77    4.9   209     9.2   1007.5    0.01 
  23   15:40   0.27   48.7    76    4.7   191     6.7   1007.5    0.00 
  23   15:50   0.20   49.2    73    5.3   188     8.8   1007.5    0.00 
  23   16:00   0.13   48.8    73    5.5   176     8.9   1007.5    0.00 
  23   16:10   0.06   47.9    75    5.8   161     8.8   1007.5    0.00 
  23   16:20   0.08   47.5    78    6.4   168     8.9   1007.5    0.00 
  23   16:30   0.26   47.8    78    5.4   157     7.5   1007.5    0.00 
  23   16:40   0.24   48.9    75    4.3   148     6.6   1007.5    0.00 
  23   16:50   0.12   49.4    73    4.1   173     6.9   1007.5    0.00 
  23   17:00   0.04   48.1    73    4.7   172     6.5   1007.8    0.00 

Return to Bodega Marine Reserve graphs page.


Western Regional Climate Center,wrcc@dri.edu